Historyczne dane pomiarowe

Dodano dane terminowe – wersja testowa.

Dane z okresu 1951-2019

Wersja bazy: 1.34 [2019-03-16, lista zmian], aktualizacja planowana na 2019-04-15

Dane meteo z obszaru Polski uzyskane na podstawie danych udostępnionych przez Instytut Meteorologii i Gospodarki Wodnej – Państwowy Instytut Badawczy.

 

Wybierz Datę:    

       

TemperaturaWilgotnośćZachmurzenieWiatrCiśnienieWidzialnośćZjawiska
 Data    tng td wb rh cc ccl cl cm ch dir g1 g2 mslp ppp      
1999-08-14 00:00:00 13.3--- 6.3 9.763wxwx2wx--1014.1 991.1 0.0---wx
1999-08-14 01:00:00 13.1--- 6.5 9.764wxwx2wx--1013.7 990.7----wx
1999-08-14 02:00:00 12.7--- 6.7 9.667wxwx2wx--1013.5 990.5----wx
1999-08-14 03:00:00 12.5--- 6.5 9.467wxwx1wx--1013.2 990.2----wx
1999-08-14 04:00:00 11.1--- 6.4 8.773wxwx1wx--1013.2 990.1----wx
1999-08-14 05:00:00 13.4--- 6.2 9.762wxwxwx1wx--1013.1 990.1----wx
1999-08-14 06:00:00 14.3--- 7.3 10.663wxwxwx1wx--1013.1 990.2 0.0---wx
1999-08-14 07:00:00 15.2--- 8.0 11.362wxwxwx1wx--1013.0 990.2----wx
1999-08-14 08:00:00 17.7--- 8.3 12.554wxwxwx2wx--1012.1 989.5----wx
1999-08-14 09:00:00 19.3--- 7.2 12.745wxwxwxwx1wx--1011.4 988.9----wx
1999-08-14 10:00:00 19.8--- 7.2 12.944wxwxwxwx3wx--1010.9 988.5----wx
1999-08-14 11:00:00 20.2--- 6.3 12.740wxwxwxwxwx3wx--1010.5 988.1----wx
1999-08-14 12:00:00 20.1--- 5.1 12.237wxwxwxwxwx2wx--1010.0 987.6 0.0---wx
1999-08-14 13:00:00 21.0--- 5.7 12.837wxwxwxwxwx3wx--1009.2 986.9----wx
1999-08-14 14:00:00 21.4--- 6.5 13.338wxwxwxwxwx3wx--1008.4 986.2----wx
1999-08-14 15:00:00 22.1--- 6.0 13.435wxwxwxwxwx2wx--1007.8 985.6----wx
1999-08-14 16:00:00 21.8--- 5.6 13.135wxwxwxwxwx4wx--1007.1 984.9----wx
1999-08-14 17:00:00 21.1--- 6.1 13.038wxwxwxwxwx3wx--1006.6 984.4----wx
1999-08-14 18:00:00 19.9--- 7.3 13.044wxwxwxwx2wx--1006.2 983.9 0.0---wx
1999-08-14 19:00:00 19.1--- 7.6 12.847wxwxwx2wx--1006.1 983.7----wx
1999-08-14 20:00:00 18.5--- 8.2 12.851wxwxwxwx2wx--1005.8 983.4----wx
1999-08-14 21:00:00 18.0--- 9.5 13.258wxwxwx2wx--1005.3 982.9----wx
1999-08-14 22:00:00 17.8--- 8.4 12.654wxwxwxwx2wx--1004.7 982.3----wx
1999-08-14 23:00:00 17.4--- 8.7 12.657wxwxwx2wx--1004.4 981.9----wx

 

Źródłem pochodzenia danych jest Instytut Meteorologii i Gospodarki Wodnej – Państwowy Instytut Badawczy. Dane Instytutu Meteorologii i Gospodarki Wodnej – Państwowego Instytutu Badawczego zostały przetworzone.

Dane źródłowe można odnaleźć na stronie https://dane.imgw.pl